createdAt,value
2019-05-05T00:02:11.066Z,4.60
2019-05-05T00:04:45.499Z,4.43
2019-05-05T00:07:16.217Z,4.13
2019-05-05T00:09:45.106Z,4.03
2019-05-05T00:12:18.343Z,4.97
2019-05-05T00:14:51.530Z,5.17
2019-05-05T00:17:22.057Z,5.07
2019-05-05T00:19:51.019Z,5.70
2019-05-05T00:22:19.948Z,5.70
2019-05-05T00:24:48.846Z,5.60
2019-05-05T00:27:17.794Z,5.37
2019-05-05T00:29:46.784Z,5.80
2019-05-05T00:32:16.715Z,5.27
2019-05-05T00:34:45.644Z,5.20
2019-05-05T00:37:15.211Z,5.10
2019-05-05T00:39:45.420Z,4.93
2019-05-05T00:42:15.402Z,6.00
2019-05-05T00:44:44.854Z,6.17
2019-05-05T00:47:18.401Z,6.07
2019-05-05T00:49:49.428Z,5.60
2019-05-05T00:52:18.498Z,5.83
2019-05-05T00:54:47.477Z,4.80
2019-05-05T00:57:16.403Z,5.53
2019-05-05T00:59:45.387Z,5.07
2019-05-05T01:02:16.295Z,5.37
2019-05-05T01:04:46.832Z,5.93
2019-05-05T01:07:16.188Z,5.37
2019-05-05T01:09:45.658Z,5.03
2019-05-05T01:22:24.828Z,5.87
2019-05-05T01:24:55.189Z,5.57
2019-05-05T01:27:25.335Z,5.50
2019-05-05T01:29:54.772Z,5.47
2019-05-05T01:32:44.595Z,5.57
2019-05-05T01:35:14.401Z,5.57
2019-05-05T01:37:50.771Z,5.53
2019-05-05T01:40:36.594Z,5.67
2019-05-05T01:43:05.527Z,6.47
2019-05-05T01:45:34.906Z,5.43
2019-05-05T01:48:04.927Z,6.00
2019-05-05T01:50:35.147Z,6.10
2019-05-05T01:53:05.284Z,6.47
2019-05-05T01:55:34.722Z,6.97
2019-05-05T01:58:24.421Z,5.73
2019-05-05T02:00:54.604Z,6.20
2019-05-05T02:03:24.418Z,7.10
2019-05-05T02:05:54.582Z,6.10
2019-05-05T02:08:24.437Z,6.13
2019-05-05T02:10:54.805Z,7.07
2019-05-05T02:13:25.185Z,6.90
2019-05-05T02:15:55.265Z,5.93
2019-05-05T02:18:25.356Z,7.67
2019-05-05T02:20:55.947Z,6.60
2019-05-05T02:23:24.903Z,7.33
2019-05-05T02:25:55.294Z,7.27
2019-05-05T02:28:26.101Z,7.17
2019-05-05T02:30:56.694Z,7.47
2019-05-05T02:33:26.250Z,7.50
2019-05-05T02:35:55.856Z,6.77
2019-05-05T02:38:26.213Z,7.47
2019-05-05T02:40:55.878Z,6.90
2019-05-05T02:43:25.653Z,8.23
2019-05-05T02:45:57.722Z,5.67
2019-05-05T02:48:27.815Z,7.20
2019-05-05T02:51:02.313Z,7.10
2019-05-05T02:53:30.211Z,7.73
2019-05-05T02:56:01.503Z,6.90
2019-05-05T02:58:33.828Z,7.43
2019-05-05T03:01:17.404Z,7.40
2019-05-05T03:03:46.386Z,8.63
2019-05-05T03:06:16.348Z,7.50
2019-05-05T03:08:46.506Z,8.20
2019-05-05T03:11:15.906Z,8.40
2019-05-05T03:13:46.333Z,8.30
2019-05-05T03:16:19.538Z,8.20
2019-05-05T03:18:48.837Z,8.03
2019-05-05T03:21:18.296Z,7.00
2019-05-05T03:23:47.396Z,8.77
2019-05-05T03:26:16.826Z,9.17
2019-05-05T03:28:48.032Z,7.47
2019-05-05T03:31:17.510Z,8.43
2019-05-05T03:33:46.686Z,8.07
2019-05-05T03:36:15.665Z,8.73
2019-05-05T03:38:45.436Z,8.60
2019-05-05T03:41:19.130Z,8.90
2019-05-05T03:44:02.151Z,8.67
2019-05-05T03:46:31.728Z,7.67
2019-05-05T03:51:51.556Z,8.03
2019-05-05T03:54:20.521Z,8.37
2019-05-05T03:56:51.137Z,8.03
2019-05-05T03:59:20.192Z,8.63
2019-05-05T04:02:03.951Z,8.97
2019-05-05T04:04:34.687Z,8.43
2019-05-05T04:07:04.754Z,8.37
2019-05-05T04:09:34.661Z,8.70
2019-05-05T04:12:04.417Z,9.30
2019-05-05T04:14:34.758Z,8.37
2019-05-05T04:17:08.569Z,9.33
2019-05-05T04:19:54.270Z,9.53
2019-05-05T04:22:23.805Z,8.37
2019-05-05T04:24:54.100Z,8.57
2019-05-05T04:27:23.896Z,8.50
2019-05-05T04:29:54.540Z,8.30
2019-05-05T04:32:24.408Z,8.63
2019-05-05T04:34:54.276Z,9.57
2019-05-05T04:37:23.914Z,9.27
2019-05-05T04:39:53.695Z,9.30
2019-05-05T04:42:24.507Z,9.37
2019-05-05T04:44:53.891Z,9.07
2019-05-05T04:47:31.159Z,8.50
2019-05-05T04:50:10.540Z,9.50
2019-05-05T04:52:39.471Z,9.10
2019-05-05T04:55:08.370Z,10.27
2019-05-05T04:57:37.270Z,10.57
2019-05-05T05:00:06.342Z,9.57
2019-05-05T05:02:47.000Z,8.63
2019-05-05T05:05:33.898Z,8.33
2019-05-05T05:08:03.693Z,9.33
2019-05-05T05:10:34.601Z,9.53
2019-05-05T05:13:04.665Z,9.27
2019-05-05T05:15:34.140Z,9.83
2019-05-05T05:18:07.529Z,9.27
2019-05-05T05:20:55.768Z,8.57
2019-05-05T05:23:24.854Z,9.17
2019-05-05T05:25:54.451Z,8.80
2019-05-05T05:28:23.773Z,8.90
2019-05-05T05:30:54.537Z,8.77
2019-05-05T05:33:23.958Z,8.90
2019-05-05T05:35:54.643Z,8.73
2019-05-05T05:38:24.341Z,9.13
2019-05-05T05:40:54.964Z,8.80
2019-05-05T05:43:25.510Z,9.40
2019-05-05T05:46:04.267Z,8.37
2019-05-05T05:48:34.354Z,8.10
2019-05-05T05:51:07.891Z,8.57
2019-05-05T05:53:36.858Z,8.20
2019-05-05T05:56:05.740Z,8.33
2019-05-05T05:58:34.651Z,8.60
2019-05-05T06:01:04.355Z,7.77
2019-05-05T06:03:33.967Z,8.13
2019-05-05T06:06:04.765Z,9.10
2019-05-05T06:08:34.676Z,8.53
2019-05-05T06:11:04.524Z,8.40
2019-05-05T06:13:33.827Z,8.60
2019-05-05T06:16:04.260Z,8.77
2019-05-05T06:18:34.599Z,8.50
2019-05-05T06:21:04.439Z,9.17
2019-05-05T06:23:34.748Z,9.20
2019-05-05T06:26:06.855Z,9.03
2019-05-05T06:28:35.936Z,9.33
2019-05-05T06:31:05.090Z,8.93
2019-05-05T06:33:34.782Z,8.50
2019-05-05T06:36:04.026Z,8.43
2019-05-05T06:38:34.665Z,8.30
2019-05-05T06:41:08.143Z,9.30
2019-05-05T06:43:41.382Z,8.07
2019-05-05T06:46:17.888Z,9.30
2019-05-05T06:48:46.769Z,9.13
2019-05-05T06:51:15.710Z,8.43
2019-05-05T06:53:44.616Z,8.23
2019-05-05T06:56:14.650Z,8.87
2019-05-05T06:58:44.840Z,8.77
2019-05-05T07:01:14.421Z,8.40
2019-05-05T07:03:43.947Z,8.93
2019-05-05T07:06:14.632Z,8.10
2019-05-05T07:08:44.039Z,8.77
2019-05-05T07:11:14.566Z,8.60
2019-05-05T07:13:44.345Z,8.93
2019-05-05T07:16:14.926Z,8.67
2019-05-05T07:18:44.702Z,8.40
2019-05-05T07:21:14.322Z,8.57
2019-05-05T07:23:44.582Z,8.90
2019-05-05T07:26:14.743Z,9.63
2019-05-05T07:28:44.739Z,9.53
2019-05-05T07:31:14.348Z,8.53
2019-05-05T07:33:44.471Z,9.23
2019-05-05T07:36:34.021Z,8.47
2019-05-05T07:39:05.377Z,7.77
2019-05-05T07:41:34.721Z,8.00
2019-05-05T07:44:04.792Z,8.00
2019-05-05T07:46:34.633Z,8.17
2019-05-05T07:49:04.201Z,8.43
2019-05-05T07:51:33.711Z,7.97
2019-05-05T07:54:03.822Z,8.17
2019-05-05T07:56:34.402Z,7.80
2019-05-05T07:59:03.951Z,8.43
2019-05-05T08:01:34.175Z,8.17
2019-05-05T08:04:04.469Z,7.87
2019-05-05T08:06:34.059Z,7.17
2019-05-05T08:09:05.334Z,7.87
2019-05-05T08:11:34.953Z,7.50
2019-05-05T08:14:04.169Z,7.33
2019-05-05T08:16:40.891Z,7.10
2019-05-05T08:19:13.788Z,7.20
2019-05-05T08:21:43.725Z,6.97
2019-05-05T08:24:15.250Z,6.50
2019-05-05T08:26:51.506Z,6.43
2019-05-05T08:29:40.403Z,6.40
2019-05-05T08:32:11.022Z,6.30
2019-05-05T08:34:54.377Z,5.30
2019-05-05T08:37:10.592Z,5.40
2019-05-05T08:39:39.519Z,4.63
2019-05-05T08:42:08.410Z,4.87
2019-05-05T08:44:37.299Z,5.23
2019-05-05T08:47:06.280Z,5.20
2019-05-05T08:49:35.214Z,4.67
2019-05-05T08:52:04.289Z,3.83
2019-05-05T08:54:34.382Z,3.90
2019-05-05T08:57:04.263Z,3.60
2019-05-05T08:59:33.829Z,3.07
2019-05-05T09:02:04.492Z,3.43
2019-05-05T09:04:34.619Z,3.47
2019-05-05T09:07:05.049Z,3.30
2019-05-05T09:09:35.241Z,3.30
2019-05-05T09:12:04.656Z,3.17
2019-05-05T09:14:34.575Z,3.03
2019-05-05T09:17:04.430Z,2.80
2019-05-05T09:19:34.493Z,2.90
2019-05-05T09:22:06.781Z,2.70
2019-05-05T09:24:41.608Z,2.40
2019-05-05T09:27:28.526Z,2.93
2019-05-05T09:29:58.923Z,2.73
2019-05-05T09:32:28.352Z,2.93
2019-05-05T09:34:57.344Z,2.33
2019-05-05T09:37:26.863Z,2.03
2019-05-05T09:39:55.749Z,2.37
2019-05-05T09:42:24.672Z,1.97
2019-05-05T09:44:54.194Z,2.10
2019-05-05T09:47:24.010Z,2.20
2019-05-05T09:49:54.971Z,2.00
2019-05-05T09:52:24.466Z,1.90
2019-05-05T09:54:54.417Z,2.13
2019-05-05T09:57:23.822Z,2.00
2019-05-05T09:59:54.506Z,2.00
2019-05-05T10:02:24.364Z,1.87
2019-05-05T10:04:54.693Z,2.23
2019-05-05T10:07:24.224Z,2.27
2019-05-05T10:09:54.249Z,2.30
2019-05-05T10:12:23.365Z,2.00
2019-05-05T10:14:54.179Z,2.00
2019-05-05T10:17:24.369Z,2.13
2019-05-05T10:19:54.673Z,2.00
2019-05-05T10:22:23.951Z,2.00
2019-05-05T10:24:57.344Z,2.00
2019-05-05T10:27:25.121Z,2.20
2019-05-05T10:29:54.718Z,1.70
2019-05-05T10:32:24.487Z,2.20
2019-05-05T10:35:01.016Z,1.90
2019-05-05T10:37:29.907Z,1.77
2019-05-05T10:39:58.862Z,1.93
2019-05-05T10:42:45.954Z,1.80
2019-05-05T10:45:15.212Z,2.00
2019-05-05T10:47:44.190Z,2.03
2019-05-05T10:50:13.936Z,1.90
2019-05-05T10:52:44.306Z,2.27
2019-05-05T10:55:14.565Z,1.63
2019-05-05T10:57:43.763Z,2.10
2019-05-05T11:00:15.542Z,1.60
2019-05-05T11:02:44.708Z,1.73
2019-05-05T11:05:14.121Z,1.73
2019-05-05T11:07:43.086Z,1.90
2019-05-05T11:10:14.195Z,1.60
2019-05-05T11:12:44.361Z,1.70
2019-05-05T11:15:14.243Z,1.50
2019-05-05T11:17:44.441Z,1.40
2019-05-05T11:20:14.369Z,1.63
2019-05-05T11:22:43.884Z,1.30
2019-05-05T11:25:13.869Z,1.53
2019-05-05T11:27:44.045Z,1.33
2019-05-05T11:30:15.766Z,1.40
2019-05-05T11:33:04.025Z,1.60
2019-05-05T11:35:46.797Z,1.60
2019-05-05T11:38:15.801Z,1.60
2019-05-05T11:40:44.762Z,2.00
2019-05-05T11:43:14.323Z,1.57
2019-05-05T11:45:43.918Z,2.10
2019-05-05T11:48:14.843Z,1.53
2019-05-05T11:50:43.853Z,1.57
2019-05-05T11:53:14.546Z,1.40
2019-05-05T11:55:44.236Z,1.30
2019-05-05T11:58:14.594Z,1.43
2019-05-05T12:00:43.952Z,1.40
2019-05-05T12:03:14.333Z,1.40
2019-05-05T12:05:44.246Z,1.50
2019-05-05T12:08:14.618Z,1.30
2019-05-05T12:10:45.436Z,1.30
2019-05-05T12:13:14.871Z,1.40
2019-05-05T12:15:45.534Z,1.40
2019-05-05T12:18:14.540Z,1.30
2019-05-05T12:20:44.088Z,1.30
2019-05-05T12:23:13.087Z,1.30
2019-05-05T12:25:46.199Z,1.20
2019-05-05T12:28:26.032Z,1.10
2019-05-05T12:31:00.458Z,1.20
2019-05-05T12:33:30.428Z,1.50
2019-05-05T12:35:59.326Z,1.57
2019-05-05T12:38:28.265Z,1.53
2019-05-05T12:40:57.150Z,1.63
2019-05-05T12:43:26.042Z,1.60
2019-05-05T12:46:05.421Z,1.67
2019-05-05T12:48:51.548Z,1.47
2019-05-05T12:51:23.465Z,1.50
2019-05-05T12:53:53.922Z,1.50
2019-05-05T12:56:23.831Z,1.50
2019-05-05T12:58:54.502Z,1.50
2019-05-05T13:01:28.208Z,1.70
2019-05-05T13:03:57.084Z,1.50
2019-05-05T13:06:25.987Z,1.70
2019-05-05T13:08:54.975Z,1.40
2019-05-05T13:11:24.023Z,1.53
2019-05-05T13:13:54.538Z,1.20
2019-05-05T13:16:25.104Z,1.50
2019-05-05T13:18:54.198Z,1.30
2019-05-05T13:21:40.905Z,1.40
2019-05-05T13:24:17.177Z,1.87
2019-05-05T13:26:48.965Z,1.37
2019-05-05T13:29:17.929Z,1.50
2019-05-05T13:31:46.829Z,1.47
2019-05-05T13:34:17.282Z,1.20
2019-05-05T13:36:46.237Z,1.30
2019-05-05T13:39:15.268Z,1.37
2019-05-05T13:41:44.878Z,1.67
2019-05-05T13:44:24.442Z,1.50
2019-05-05T13:46:53.678Z,1.27
2019-05-05T13:49:32.881Z,1.47
2019-05-05T13:52:04.650Z,1.63
2019-05-05T13:54:34.064Z,1.60
2019-05-05T13:57:03.860Z,1.57
2019-05-05T13:59:33.970Z,1.53
2019-05-05T14:02:03.186Z,1.70
2019-05-05T14:04:34.249Z,1.50
2019-05-05T14:07:04.320Z,1.50
2019-05-05T14:09:33.396Z,1.40
2019-05-05T14:12:04.126Z,1.43
2019-05-05T14:14:33.680Z,1.20
2019-05-05T14:17:04.110Z,1.60
2019-05-05T14:19:34.594Z,1.43
2019-05-05T14:22:04.390Z,1.57
2019-05-05T14:24:38.094Z,1.53
2019-05-05T14:27:07.122Z,1.67
2019-05-05T14:29:50.057Z,1.50
2019-05-05T14:32:20.587Z,1.50
2019-05-05T14:35:00.598Z,1.20
2019-05-05T14:37:31.193Z,1.63
2019-05-05T14:40:00.158Z,1.50
2019-05-05T14:42:29.059Z,1.30
2019-05-05T14:44:57.966Z,1.57
2019-05-05T14:47:28.017Z,1.47
2019-05-05T14:49:56.905Z,1.50
2019-05-05T14:52:25.807Z,1.47
2019-05-05T14:54:54.737Z,1.17
2019-05-05T14:57:27.709Z,1.10
2019-05-05T14:59:56.705Z,1.43
2019-05-05T15:02:25.673Z,1.20
2019-05-05T15:04:56.200Z,1.13
2019-05-05T15:07:29.646Z,1.40
2019-05-05T15:10:15.285Z,1.30
2019-05-05T15:12:45.845Z,1.30
2019-05-05T15:15:14.909Z,1.47
2019-05-05T15:17:43.889Z,1.40
2019-05-05T15:20:13.987Z,1.57
2019-05-05T15:22:43.667Z,1.33
2019-05-05T15:25:12.872Z,1.30
2019-05-05T15:27:41.774Z,1.40
2019-05-05T15:30:10.904Z,1.40
2019-05-05T15:32:39.825Z,1.50
2019-05-05T15:35:08.832Z,1.00
2019-05-05T15:37:37.862Z,1.50
2019-05-05T15:40:06.867Z,1.40
2019-05-05T15:42:35.995Z,0.97
2019-05-05T15:45:05.657Z,1.00
2019-05-05T15:47:34.755Z,1.00
2019-05-05T15:50:06.976Z,1.10
2019-05-05T15:52:35.893Z,1.17
2019-05-05T15:55:06.458Z,0.93
2019-05-05T15:57:35.420Z,0.80
2019-05-05T16:00:05.870Z,1.10
2019-05-05T16:02:36.052Z,1.23
2019-05-05T16:05:06.105Z,1.10
2019-05-05T16:07:34.988Z,1.10
2019-05-05T16:10:05.243Z,1.20
2019-05-05T16:12:39.209Z,1.20
2019-05-05T16:15:13.915Z,1.60
2019-05-05T16:17:44.855Z,1.20
2019-05-05T16:20:15.452Z,1.10
2019-05-05T16:23:00.957Z,1.00
2019-05-05T16:25:29.925Z,1.17
2019-05-05T16:27:58.815Z,1.10
2019-05-05T16:30:27.923Z,0.93
2019-05-05T16:32:56.927Z,1.13
2019-05-05T16:35:25.815Z,1.03
2019-05-05T16:37:54.885Z,1.00
2019-05-05T16:40:25.875Z,1.10
2019-05-05T16:42:54.503Z,1.03
2019-05-05T16:45:24.648Z,1.17
2019-05-05T16:47:54.523Z,1.20
2019-05-05T16:50:25.077Z,1.07
2019-05-05T16:53:03.805Z,1.00
2019-05-05T16:55:53.823Z,0.90
2019-05-05T16:58:24.054Z,1.10
2019-05-05T17:00:54.500Z,1.20
2019-05-05T17:03:24.015Z,1.07
2019-05-05T17:05:54.662Z,1.00
2019-05-05T17:08:24.428Z,1.20
2019-05-05T17:10:53.548Z,1.47
2019-05-05T17:13:36.557Z,1.60
2019-05-05T17:16:23.880Z,0.97
2019-05-05T17:18:54.502Z,1.77
2019-05-05T17:21:41.440Z,1.00
2019-05-05T17:24:10.321Z,1.07
2019-05-05T17:26:39.230Z,1.10
2019-05-05T17:29:08.326Z,1.00
2019-05-05T17:31:37.296Z,1.30
2019-05-05T17:34:06.237Z,1.30
2019-05-05T17:36:35.194Z,1.10
2019-05-05T17:39:06.584Z,1.30
2019-05-05T17:41:46.816Z,0.90
2019-05-05T17:44:17.410Z,1.47
2019-05-05T17:46:48.064Z,0.90
2019-05-05T17:49:18.584Z,1.37
2019-05-05T17:51:49.140Z,0.90
2019-05-05T17:54:19.730Z,0.90
2019-05-05T17:56:48.789Z,0.83
2019-05-05T17:59:17.852Z,1.10
2019-05-05T18:01:46.754Z,1.03
2019-05-05T18:04:15.657Z,1.40
2019-05-05T18:06:58.177Z,1.33
2019-05-05T18:09:28.733Z,1.20
2019-05-05T18:12:11.381Z,1.33
2019-05-05T18:14:44.866Z,1.27
2019-05-05T18:17:13.752Z,1.00
2019-05-05T18:19:43.586Z,1.40
2019-05-05T18:22:13.946Z,1.17
2019-05-05T18:24:44.572Z,1.30
2019-05-05T18:27:14.761Z,1.10
2019-05-05T18:29:43.779Z,1.30
2019-05-05T18:32:13.910Z,1.40
2019-05-05T18:34:42.911Z,1.50
2019-05-05T18:37:11.799Z,1.20
2019-05-05T18:39:40.763Z,1.17
2019-05-05T18:42:11.322Z,1.20
2019-05-05T18:44:41.916Z,0.90
2019-05-05T18:47:18.147Z,1.20
2019-05-05T18:49:46.163Z,1.30
2019-05-05T18:52:15.322Z,1.20
2019-05-05T18:54:44.320Z,1.33
2019-05-05T18:57:13.217Z,1.00
2019-05-05T18:59:44.506Z,1.10
2019-05-05T19:02:29.605Z,1.20
2019-05-05T19:05:12.062Z,1.40
2019-05-05T19:07:54.878Z,1.20
2019-05-05T19:10:16.365Z,1.30
2019-05-05T19:12:45.346Z,0.97
2019-05-05T19:15:15.033Z,0.93
2019-05-05T19:17:44.101Z,0.90
2019-05-05T19:20:24.459Z,1.00
2019-05-05T19:23:05.082Z,1.13
2019-05-05T19:25:35.520Z,1.30
2019-05-05T19:28:04.680Z,1.10
2019-05-05T19:30:36.030Z,1.30
2019-05-05T19:33:05.052Z,1.07
2019-05-05T19:35:43.559Z,1.10
2019-05-05T19:38:05.020Z,1.37
2019-05-05T19:40:34.141Z,1.43
2019-05-05T19:43:04.801Z,1.10
2019-05-05T19:45:34.425Z,1.27
2019-05-05T19:48:05.685Z,1.30
2019-05-05T19:50:35.891Z,1.07
2019-05-05T19:53:06.470Z,1.50
2019-05-05T19:55:36.419Z,1.30
2019-05-05T19:58:06.543Z,1.37
2019-05-05T20:00:38.442Z,1.50
2019-05-05T20:03:06.156Z,1.20
2019-05-05T20:05:35.106Z,1.70
2019-05-05T20:08:04.235Z,1.03
2019-05-05T20:10:33.249Z,1.10
2019-05-05T20:13:02.173Z,1.43
2019-05-05T20:15:45.007Z,1.03
2019-05-05T20:18:14.473Z,1.37
2019-05-05T20:20:44.491Z,1.27
2019-05-05T20:23:14.018Z,1.60
2019-05-05T20:25:44.904Z,1.40
2019-05-05T20:28:15.557Z,1.30
2019-05-05T20:30:45.001Z,1.50
2019-05-05T20:33:19.064Z,1.50
2019-05-05T20:35:50.173Z,1.20
2019-05-05T20:38:36.323Z,1.50
2019-05-05T20:41:10.210Z,1.40
2019-05-05T20:43:39.617Z,1.70
2019-05-05T20:46:09.231Z,1.20
2019-05-05T20:48:41.228Z,1.73
2019-05-05T20:51:09.886Z,1.60
2019-05-05T20:53:39.185Z,1.70
2019-05-05T20:56:08.639Z,1.73
2019-05-05T20:58:38.039Z,1.67
2019-05-05T21:01:07.517Z,1.63
2019-05-05T21:03:36.903Z,1.80
2019-05-05T21:06:06.308Z,1.70
2019-05-05T21:08:35.607Z,1.50
2019-05-05T21:11:04.999Z,1.40
2019-05-05T21:13:34.457Z,1.40
2019-05-05T21:16:03.962Z,1.90
2019-05-05T21:18:34.728Z,1.80
2019-05-05T21:21:05.912Z,2.30
2019-05-05T21:23:36.868Z,1.80
2019-05-05T21:26:07.849Z,1.80
2019-05-05T21:28:37.156Z,2.00
2019-05-05T21:31:06.461Z,1.80
2019-05-05T21:33:35.801Z,1.90
2019-05-05T21:36:05.175Z,2.00
2019-05-05T21:38:36.070Z,2.13
2019-05-05T21:41:05.532Z,2.23
2019-05-05T21:43:34.908Z,2.03
2019-05-05T21:46:05.278Z,2.10
2019-05-05T21:48:34.632Z,1.53
2019-05-05T21:51:11.557Z,2.00
2019-05-05T21:53:48.812Z,2.20
2019-05-05T21:56:39.093Z,2.03
2019-05-05T21:59:08.425Z,2.23
2019-05-05T22:01:40.278Z,2.20
2019-05-05T22:04:09.249Z,1.70
2019-05-05T22:06:38.691Z,2.00
2019-05-05T22:09:08.437Z,2.53
2019-05-05T22:11:38.439Z,1.97
2019-05-05T22:14:07.753Z,2.60
2019-05-05T22:16:37.104Z,2.33
2019-05-05T22:19:07.665Z,2.10
2019-05-05T22:21:38.601Z,1.90
2019-05-05T22:24:18.570Z,2.13
2019-05-05T22:26:48.016Z,1.87
2019-05-05T22:29:17.464Z,2.33
2019-05-05T22:31:46.964Z,2.37
2019-05-05T22:34:16.343Z,2.10
2019-05-05T22:36:45.823Z,2.30
2019-05-05T22:39:17.067Z,2.40
2019-05-05T22:41:46.320Z,2.57
2019-05-05T22:44:15.796Z,2.53
2019-05-05T22:46:45.619Z,2.73
2019-05-05T22:49:14.920Z,2.43
2019-05-05T22:51:44.695Z,2.10
2019-05-05T22:54:15.016Z,2.30
2019-05-05T22:56:44.892Z,2.40
2019-05-05T22:59:14.494Z,2.80
2019-05-05T23:01:43.868Z,2.87
2019-05-05T23:04:15.003Z,2.83
2019-05-05T23:07:01.052Z,2.90
2019-05-05T23:09:30.480Z,2.77
2019-05-05T23:11:59.892Z,2.97
2019-05-05T23:14:29.421Z,2.60
2019-05-05T23:17:04.641Z,2.90
2019-05-05T23:19:36.368Z,2.50
2019-05-05T23:22:07.341Z,3.00
2019-05-05T23:24:38.296Z,3.10
2019-05-05T23:27:07.687Z,3.13
2019-05-05T23:29:36.996Z,2.93
2019-05-05T23:32:06.306Z,2.83
2019-05-05T23:34:35.639Z,2.90
2019-05-05T23:37:04.954Z,3.20
2019-05-05T23:39:34.258Z,3.73
2019-05-05T23:42:04.036Z,3.57
2019-05-05T23:44:34.549Z,3.13
2019-05-05T23:47:04.485Z,3.10
2019-05-05T23:49:34.900Z,2.77
2019-05-05T23:52:04.455Z,3.20
2019-05-05T23:54:34.152Z,2.93
2019-05-05T23:57:04.699Z,3.23
2019-05-05T23:59:34.221Z,2.60
